createdAt,value
2018-12-13T00:00:06.207Z,100.00
2018-12-13T00:02:34.483Z,100.00
2018-12-13T00:05:02.741Z,100.00
2018-12-13T00:07:30.998Z,100.00
2018-12-13T00:09:59.297Z,100.00
2018-12-13T00:12:27.668Z,100.00
2018-12-13T00:14:55.961Z,100.00
2018-12-13T00:17:24.248Z,100.00
2018-12-13T00:19:52.547Z,99.82
2018-12-13T00:22:21.185Z,100.00
2018-12-13T00:24:49.440Z,100.00
2018-12-13T00:27:17.727Z,100.00
2018-12-13T00:29:46.015Z,100.00
2018-12-13T00:32:14.270Z,100.00
2018-12-13T00:37:20.781Z,100.00
2018-12-13T00:39:49.057Z,100.00
2018-12-13T00:42:17.323Z,100.00
2018-12-13T00:44:45.599Z,98.94
2018-12-13T00:47:13.861Z,98.71
2018-12-13T00:49:42.144Z,97.81
2018-12-13T00:52:10.435Z,96.68
2018-12-13T00:54:38.800Z,96.50
2018-12-13T00:57:07.068Z,96.48
2018-12-13T00:59:35.345Z,96.31
2018-12-13T01:02:03.667Z,99.12
2018-12-13T01:04:32.069Z,99.89
2018-12-13T01:07:00.449Z,100.00
2018-12-13T01:09:28.739Z,100.00
2018-12-13T01:11:57.032Z,98.38
2018-12-13T01:17:03.480Z,100.00
2018-12-13T01:19:31.799Z,100.00
2018-12-13T01:22:00.092Z,100.00
2018-12-13T01:24:28.392Z,97.96
2018-12-13T01:26:56.746Z,97.25
2018-12-13T01:29:25.073Z,97.84
2018-12-13T01:31:53.331Z,98.53
2018-12-13T01:36:59.801Z,96.53
2018-12-13T01:39:28.071Z,95.95
2018-12-13T01:41:56.381Z,95.95
2018-12-13T01:44:24.639Z,95.09
2018-12-13T01:46:52.915Z,95.03
2018-12-13T01:49:21.176Z,95.62
2018-12-13T01:51:49.443Z,95.14
2018-12-13T01:54:17.972Z,95.49
2018-12-13T01:56:46.228Z,94.57
2018-12-13T01:59:14.515Z,94.79
2018-12-13T02:01:42.852Z,95.02
2018-12-13T02:04:11.548Z,93.87
2018-12-13T02:06:39.896Z,94.19
2018-12-13T02:09:08.487Z,94.74
2018-12-13T02:11:36.746Z,94.81
2018-12-13T02:14:05.029Z,95.57
2018-12-13T02:16:33.295Z,96.89
2018-12-13T02:19:01.563Z,96.24
2018-12-13T02:21:29.935Z,95.47
2018-12-13T02:23:58.199Z,95.72
2018-12-13T02:26:26.575Z,95.04
2018-12-13T02:28:54.871Z,93.99
2018-12-13T02:31:23.132Z,94.60
2018-12-13T02:33:51.464Z,95.76
2018-12-13T02:36:19.748Z,97.87
2018-12-13T02:38:48.060Z,97.46
2018-12-13T02:41:16.332Z,95.64
2018-12-13T02:43:44.615Z,97.25
2018-12-13T02:46:12.869Z,98.34
2018-12-13T02:48:41.143Z,97.96
2018-12-13T02:51:09.408Z,97.26
2018-12-13T02:53:37.781Z,97.34
2018-12-13T02:56:06.141Z,97.25
2018-12-13T03:01:12.767Z,96.64
2018-12-13T03:03:41.065Z,97.22
2018-12-13T03:06:09.325Z,97.68
2018-12-13T03:08:37.634Z,98.10
2018-12-13T03:11:05.960Z,100.00
2018-12-13T03:13:34.223Z,100.00
2018-12-13T03:16:02.502Z,97.56
2018-12-13T03:18:31.029Z,96.29
2018-12-13T03:20:59.289Z,95.05
2018-12-13T03:26:06.009Z,97.68
2018-12-13T03:28:34.326Z,98.25
2018-12-13T03:31:02.586Z,98.60
2018-12-13T03:33:30.861Z,96.84
2018-12-13T03:35:59.135Z,98.24
2018-12-13T03:38:27.494Z,97.30
2018-12-13T03:40:55.830Z,95.50
2018-12-13T03:43:24.250Z,95.70
2018-12-13T03:45:52.537Z,98.03
2018-12-13T03:48:20.843Z,96.64
2018-12-13T03:50:49.401Z,97.34
2018-12-13T03:53:17.659Z,97.18
2018-12-13T03:55:45.995Z,97.44
2018-12-13T03:58:14.251Z,98.39
2018-12-13T04:00:42.585Z,98.23
2018-12-13T04:03:10.934Z,97.53
2018-12-13T04:05:40.459Z,97.14
2018-12-13T04:08:08.738Z,96.64
2018-12-13T04:10:37.015Z,95.72
2018-12-13T04:13:05.267Z,95.94
2018-12-13T04:15:33.603Z,97.57
2018-12-13T04:18:01.916Z,98.29
2018-12-13T04:20:30.214Z,96.13
2018-12-13T04:22:58.493Z,97.68
2018-12-13T04:25:26.768Z,98.30
2018-12-13T04:27:55.064Z,98.67
2018-12-13T04:30:23.341Z,97.84
2018-12-13T04:32:51.595Z,97.25
2018-12-13T04:35:19.871Z,99.08
2018-12-13T04:40:26.293Z,98.65
2018-12-13T04:42:54.547Z,99.56
2018-12-13T04:45:22.824Z,100.00
2018-12-13T04:47:51.125Z,99.89
2018-12-13T04:50:19.407Z,100.00
2018-12-13T04:52:47.665Z,100.00
2018-12-13T04:55:15.976Z,100.00
2018-12-13T04:57:44.247Z,100.00
2018-12-13T05:00:13.023Z,100.00
2018-12-13T05:02:41.325Z,100.00
2018-12-13T05:05:09.640Z,100.00
2018-12-13T05:07:41.750Z,100.00
2018-12-13T05:10:08.834Z,100.00
2018-12-13T05:12:37.115Z,100.00
2018-12-13T05:15:05.514Z,100.00
2018-12-13T05:17:33.809Z,100.00
2018-12-13T05:20:02.088Z,100.00
2018-12-13T05:22:30.368Z,100.00
2018-12-13T05:24:58.693Z,100.00
2018-12-13T05:27:27.001Z,100.00
2018-12-13T05:29:55.260Z,100.00
2018-12-13T05:35:04.048Z,99.81
2018-12-13T05:37:32.331Z,100.00
2018-12-13T05:40:00.607Z,100.00
2018-12-13T05:42:28.869Z,100.00
2018-12-13T05:44:57.145Z,100.00
2018-12-13T05:47:25.413Z,100.00
2018-12-13T05:49:53.732Z,99.82
2018-12-13T05:52:22.001Z,100.00
2018-12-13T05:54:50.268Z,98.66
2018-12-13T05:57:18.561Z,97.70
2018-12-13T05:59:46.873Z,98.27
2018-12-13T06:02:15.146Z,100.00
2018-12-13T06:04:43.448Z,100.00
2018-12-13T06:07:11.986Z,100.00
2018-12-13T06:09:40.250Z,100.00
2018-12-13T06:12:08.514Z,100.00
2018-12-13T06:14:36.795Z,100.00
2018-12-13T06:17:05.088Z,98.67
2018-12-13T06:19:33.353Z,99.47
2018-12-13T06:22:01.623Z,99.43
2018-12-13T06:24:29.945Z,99.68
2018-12-13T06:26:58.217Z,98.78
2018-12-13T06:29:26.519Z,99.10
2018-12-13T06:31:54.857Z,99.35
2018-12-13T06:34:23.146Z,98.85
2018-12-13T06:36:51.422Z,98.68
2018-12-13T06:39:19.693Z,98.42
2018-12-13T06:41:48.005Z,97.37
2018-12-13T06:44:16.264Z,97.40
2018-12-13T06:49:22.788Z,98.74
2018-12-13T06:51:51.044Z,98.13
2018-12-13T06:54:19.319Z,97.05
2018-12-13T06:56:47.583Z,94.97
2018-12-13T06:59:15.853Z,94.59
2018-12-13T07:01:44.425Z,93.28
2018-12-13T07:04:12.875Z,92.17
2018-12-13T07:06:41.132Z,94.83
2018-12-13T07:09:09.403Z,94.13
2018-12-13T07:11:37.680Z,92.44
2018-12-13T07:14:06.480Z,94.02
2018-12-13T07:16:34.901Z,94.30
2018-12-13T07:19:03.176Z,95.05
2018-12-13T07:21:31.443Z,94.84
2018-12-13T07:23:59.786Z,95.55
2018-12-13T07:26:28.040Z,94.99
2018-12-13T07:28:56.325Z,94.61
2018-12-13T07:31:24.629Z,94.57
2018-12-13T07:33:52.891Z,94.34
2018-12-13T07:36:21.172Z,94.14
2018-12-13T07:38:49.472Z,94.72
2018-12-13T07:41:17.752Z,94.62
2018-12-13T07:43:46.012Z,94.37
2018-12-13T07:46:14.281Z,92.56
2018-12-13T07:51:25.757Z,92.73
2018-12-13T07:53:54.073Z,91.40
2018-12-13T07:56:22.392Z,89.90
2018-12-13T07:58:50.677Z,93.28
2018-12-13T08:01:18.967Z,92.45
2018-12-13T08:03:47.268Z,91.14
2018-12-13T08:06:15.544Z,91.75
2018-12-13T08:08:43.808Z,90.63
2018-12-13T08:11:12.108Z,90.81
2018-12-13T08:13:40.408Z,91.18
2018-12-13T08:16:08.698Z,92.19
2018-12-13T08:18:36.959Z,91.67
2018-12-13T08:21:05.282Z,91.14
2018-12-13T08:23:33.562Z,93.93
2018-12-13T08:26:02.025Z,93.99
2018-12-13T08:28:30.324Z,95.10
2018-12-13T08:30:58.593Z,94.05
2018-12-13T08:33:26.851Z,94.09
2018-12-13T08:35:55.125Z,93.94
2018-12-13T08:38:27.210Z,94.13
2018-12-13T08:40:53.672Z,94.45
2018-12-13T08:43:22.041Z,94.97
2018-12-13T08:45:50.348Z,92.24
2018-12-13T08:48:19.160Z,92.84
2018-12-13T08:50:48.503Z,93.15
2018-12-13T08:53:16.811Z,90.81
2018-12-13T08:55:45.082Z,92.80
2018-12-13T08:58:13.320Z,90.15
2018-12-13T09:00:41.696Z,91.32
2018-12-13T09:03:09.988Z,91.18
2018-12-13T09:05:38.282Z,88.65
2018-12-13T09:08:06.557Z,88.51
2018-12-13T09:10:34.838Z,88.60
2018-12-13T09:13:03.180Z,88.67
2018-12-13T09:15:31.472Z,89.37
2018-12-13T09:17:59.760Z,88.25
2018-12-13T09:20:28.043Z,88.24
2018-12-13T09:22:56.326Z,82.54
2018-12-13T09:25:24.617Z,82.31
2018-12-13T09:27:52.868Z,84.68
2018-12-13T09:30:21.202Z,81.74
2018-12-13T09:35:27.703Z,81.67
2018-12-13T09:37:56.044Z,78.51
2018-12-13T09:40:24.292Z,78.69
2018-12-13T09:42:52.588Z,77.83
2018-12-13T09:45:20.831Z,80.86
2018-12-13T09:47:49.140Z,83.84
2018-12-13T09:50:17.423Z,81.49
2018-12-13T09:52:45.725Z,81.74
2018-12-13T09:55:14.012Z,79.31
2018-12-13T09:57:42.333Z,78.99
2018-12-13T10:00:11.013Z,76.67
2018-12-13T10:02:39.258Z,79.75
2018-12-13T10:05:07.619Z,79.36
2018-12-13T10:07:35.857Z,77.59
2018-12-13T10:10:04.791Z,76.52
2018-12-13T10:12:33.096Z,76.85
2018-12-13T10:15:01.355Z,76.56
2018-12-13T10:17:29.623Z,76.91
2018-12-13T10:22:36.076Z,76.13
2018-12-13T10:25:05.217Z,76.42
2018-12-13T10:27:33.492Z,81.44
2018-12-13T10:30:02.677Z,80.67
2018-12-13T10:32:31.013Z,77.43
2018-12-13T10:34:59.283Z,79.27
2018-12-13T10:37:27.660Z,77.43
2018-12-13T10:39:56.006Z,77.87
2018-12-13T10:42:24.289Z,74.80
2018-12-13T10:44:52.697Z,74.52
2018-12-13T10:47:21.099Z,75.28
2018-12-13T10:49:49.368Z,74.70
2018-12-13T10:52:17.873Z,71.97
2018-12-13T10:54:46.115Z,72.37
2018-12-13T10:57:14.397Z,74.05
2018-12-13T10:59:42.757Z,72.78
2018-12-13T11:05:17.147Z,74.46
2018-12-13T11:07:45.412Z,74.87
2018-12-13T11:10:13.757Z,72.34
2018-12-13T11:12:42.059Z,72.19
2018-12-13T11:15:10.320Z,73.36
2018-12-13T11:17:38.646Z,76.22
2018-12-13T11:20:07.036Z,77.61
2018-12-13T11:22:35.292Z,71.47
2018-12-13T11:25:04.084Z,71.63
2018-12-13T11:30:56.992Z,72.36
2018-12-13T11:33:25.259Z,72.11
2018-12-13T11:35:53.508Z,71.34
2018-12-13T11:38:21.775Z,72.80
2018-12-13T11:40:50.117Z,71.72
2018-12-13T11:43:18.371Z,69.38
2018-12-13T11:45:46.737Z,74.60
2018-12-13T11:48:15.015Z,77.31
2018-12-13T11:50:43.280Z,73.73
2018-12-13T11:53:11.559Z,67.25
2018-12-13T11:55:39.992Z,70.29
2018-12-13T11:58:08.283Z,70.37
2018-12-13T12:00:36.566Z,65.36
2018-12-13T12:03:04.932Z,72.94
2018-12-13T12:05:33.187Z,73.93
2018-12-13T12:08:01.613Z,69.63
2018-12-13T12:10:29.924Z,69.44
2018-12-13T12:12:58.201Z,63.96
2018-12-13T12:15:26.615Z,63.18
2018-12-13T12:17:54.951Z,64.32
2018-12-13T12:20:23.217Z,68.76
2018-12-13T12:22:51.462Z,67.95
2018-12-13T12:25:19.759Z,71.68
2018-12-13T12:27:48.031Z,72.97
2018-12-13T12:30:16.316Z,71.22
2018-12-13T12:32:44.667Z,73.83
2018-12-13T12:35:13.022Z,74.02
2018-12-13T12:37:41.325Z,73.74
2018-12-13T12:40:09.658Z,68.67
2018-12-13T12:42:37.903Z,71.01
2018-12-13T12:45:06.418Z,68.04
2018-12-13T12:47:34.857Z,69.80
2018-12-13T12:50:03.618Z,73.92
2018-12-13T12:52:31.880Z,76.17
2018-12-13T12:55:00.166Z,75.13
2018-12-13T12:57:28.414Z,77.39
2018-12-13T12:59:56.679Z,76.07
2018-12-13T13:02:25.252Z,78.81
2018-12-13T13:04:53.539Z,79.08
2018-12-13T13:07:21.791Z,77.68
2018-12-13T13:09:50.089Z,78.38
2018-12-13T13:12:18.369Z,73.75
2018-12-13T13:14:46.612Z,72.79
2018-12-13T13:17:14.927Z,73.64
2018-12-13T13:19:43.221Z,76.73
2018-12-13T13:22:11.472Z,80.20
2018-12-13T13:24:39.755Z,75.56
2018-12-13T13:27:08.026Z,78.81
2018-12-13T13:29:36.340Z,74.04
2018-12-13T13:32:04.731Z,77.80
2018-12-13T13:34:33.040Z,80.53
2018-12-13T13:37:01.380Z,82.25
2018-12-13T13:39:31.674Z,78.77
2018-12-13T13:42:00.195Z,80.80
2018-12-13T13:47:08.578Z,81.61
2018-12-13T13:49:37.010Z,81.70
2018-12-13T13:52:05.377Z,83.66
2018-12-13T13:54:33.703Z,80.11
2018-12-13T13:57:02.005Z,80.39
2018-12-13T13:59:30.255Z,82.45
2018-12-13T14:01:58.560Z,83.65
2018-12-13T14:04:26.843Z,82.66
2018-12-13T14:06:55.261Z,83.09
2018-12-13T14:09:23.677Z,82.82
2018-12-13T14:11:51.999Z,84.35
2018-12-13T14:14:20.283Z,84.02
2018-12-13T14:16:48.568Z,83.98
2018-12-13T14:19:16.907Z,83.79
2018-12-13T14:21:45.224Z,84.21
2018-12-13T14:24:13.516Z,83.69
2018-12-13T14:26:41.788Z,84.43
2018-12-13T14:29:10.039Z,82.12
2018-12-13T14:31:38.303Z,83.80
2018-12-13T14:34:06.657Z,83.66
2018-12-13T14:36:34.918Z,84.53
2018-12-13T14:41:45.337Z,85.26
2018-12-13T14:44:13.636Z,82.74
2018-12-13T14:46:41.973Z,83.27
2018-12-13T14:49:10.267Z,81.46
2018-12-13T14:51:38.602Z,85.24
2018-12-13T14:54:06.904Z,84.93
2018-12-13T14:56:35.210Z,85.15
2018-12-13T14:59:03.594Z,83.55
2018-12-13T15:01:31.910Z,85.06
2018-12-13T15:04:00.189Z,83.46
2018-12-13T15:06:28.574Z,85.85
2018-12-13T15:08:56.856Z,86.34
2018-12-13T15:11:25.153Z,85.26
2018-12-13T15:13:53.405Z,87.05
2018-12-13T15:16:21.948Z,86.16
2018-12-13T15:18:50.256Z,86.18
2018-12-13T15:21:18.513Z,87.39
2018-12-13T15:23:46.819Z,87.67
2018-12-13T15:26:15.119Z,87.64
2018-12-13T15:28:43.372Z,87.31
2018-12-13T15:31:11.659Z,86.81
2018-12-13T15:33:39.942Z,87.95
2018-12-13T15:36:08.215Z,88.47
2018-12-13T15:38:36.551Z,87.56
2018-12-13T15:41:04.808Z,86.28
2018-12-13T15:43:33.099Z,87.17
2018-12-13T15:46:01.368Z,88.38
2018-12-13T15:48:29.679Z,88.03
2018-12-13T15:50:57.971Z,88.08
2018-12-13T15:53:26.215Z,88.53
2018-12-13T15:55:54.469Z,86.98
2018-12-13T15:58:22.791Z,88.56
2018-12-13T16:00:51.112Z,89.33
2018-12-13T16:03:19.443Z,89.95
2018-12-13T16:05:47.756Z,89.34
2018-12-13T16:08:16.016Z,88.87
2018-12-13T16:10:44.388Z,89.26
2018-12-13T16:15:51.133Z,85.30
2018-12-13T16:18:19.472Z,88.16
2018-12-13T16:20:47.722Z,88.81
2018-12-13T16:25:54.436Z,89.39
2018-12-13T16:28:22.726Z,88.82
2018-12-13T16:30:51.089Z,89.27
2018-12-13T16:33:19.368Z,87.23
2018-12-13T16:35:47.687Z,89.23
2018-12-13T16:38:15.941Z,88.92
2018-12-13T16:40:44.250Z,89.16
2018-12-13T16:43:12.581Z,89.65
2018-12-13T16:45:40.831Z,88.70
2018-12-13T16:48:09.157Z,89.95
2018-12-13T16:50:37.472Z,88.95
2018-12-13T16:53:05.756Z,87.40
2018-12-13T16:55:34.108Z,89.88
2018-12-13T16:58:02.371Z,88.13
2018-12-13T17:00:30.637Z,88.97
2018-12-13T17:02:59.044Z,89.93
2018-12-13T17:05:27.615Z,88.68
2018-12-13T17:07:55.867Z,89.52
2018-12-13T17:10:24.188Z,89.39
2018-12-13T17:12:52.533Z,89.25
2018-12-13T17:15:20.825Z,89.90
2018-12-13T17:17:49.208Z,89.52
2018-12-13T17:20:17.573Z,89.40
2018-12-13T17:22:45.872Z,88.42
2018-12-13T17:25:14.124Z,89.56
2018-12-13T17:30:20.651Z,89.60
2018-12-13T17:32:48.948Z,89.53
2018-12-13T17:35:17.207Z,88.23
2018-12-13T17:37:45.558Z,89.27
2018-12-13T17:40:13.968Z,89.36
2018-12-13T17:42:42.276Z,89.96
2018-12-13T17:45:10.592Z,89.11
2018-12-13T17:47:38.914Z,88.89
2018-12-13T17:50:07.332Z,89.85
2018-12-13T17:52:35.580Z,90.19
2018-12-13T17:55:04.839Z,90.33
2018-12-13T17:57:34.440Z,89.25
2018-12-13T18:00:02.891Z,88.58
2018-12-13T18:02:31.180Z,88.78
2018-12-13T18:04:59.489Z,89.29
2018-12-13T18:07:27.743Z,89.79
2018-12-13T18:09:56.048Z,89.73
2018-12-13T18:12:25.327Z,89.91
2018-12-13T18:14:53.653Z,89.57
2018-12-13T18:17:21.915Z,86.43
2018-12-13T18:19:50.213Z,87.05
2018-12-13T18:22:18.527Z,89.55
2018-12-13T18:24:46.865Z,88.48
2018-12-13T18:27:15.307Z,85.93
2018-12-13T18:29:43.672Z,87.23
2018-12-13T18:32:11.977Z,87.31
2018-12-13T18:34:40.244Z,85.28
2018-12-13T18:37:08.566Z,88.95
2018-12-13T18:39:36.911Z,87.22
2018-12-13T18:42:05.163Z,85.91
2018-12-13T18:44:33.551Z,89.21
2018-12-13T18:47:02.178Z,87.43
2018-12-13T18:49:30.437Z,87.04
2018-12-13T18:51:58.744Z,86.04
2018-12-13T18:54:27.039Z,87.45
2018-12-13T18:56:55.334Z,87.52
2018-12-13T18:59:23.627Z,86.61
2018-12-13T19:01:51.888Z,85.08
2018-12-13T19:04:20.152Z,84.13
2018-12-13T19:06:48.483Z,84.81
2018-12-13T19:09:16.791Z,83.95
2018-12-13T19:11:45.110Z,85.08
2018-12-13T19:14:13.373Z,83.83
2018-12-13T19:16:41.704Z,84.83
2018-12-13T19:19:09.991Z,85.97
2018-12-13T19:21:38.255Z,87.49
2018-12-13T19:24:06.559Z,86.79
2018-12-13T19:26:34.926Z,88.06
2018-12-13T19:29:03.230Z,88.36
2018-12-13T19:31:31.483Z,87.57
2018-12-13T19:33:59.783Z,86.22
2018-12-13T19:36:28.074Z,84.32
2018-12-13T19:41:34.593Z,84.67
2018-12-13T19:44:02.925Z,85.25
2018-12-13T19:46:31.226Z,87.88
2018-12-13T19:48:59.536Z,89.12
2018-12-13T19:51:27.819Z,87.41
2018-12-13T19:53:56.177Z,86.83
2018-12-13T19:56:24.436Z,85.16
2018-12-13T19:58:52.766Z,86.63
2018-12-13T20:01:21.058Z,86.46
2018-12-13T20:03:49.352Z,86.21
2018-12-13T20:06:17.647Z,87.75
2018-12-13T20:08:45.944Z,85.28
2018-12-13T20:11:14.204Z,85.93
2018-12-13T20:13:42.563Z,87.95
2018-12-13T20:16:10.823Z,87.92
2018-12-13T20:18:39.085Z,85.08
2018-12-13T20:21:07.420Z,85.68
2018-12-13T20:23:35.702Z,86.96
2018-12-13T20:26:04.088Z,85.98
2018-12-13T20:28:32.415Z,86.24
2018-12-13T20:31:00.672Z,86.90
2018-12-13T20:33:28.968Z,85.73
2018-12-13T20:35:57.228Z,86.17
2018-12-13T20:38:25.587Z,88.28
2018-12-13T20:40:53.845Z,88.03
2018-12-13T20:43:22.148Z,88.49
2018-12-13T20:45:50.413Z,87.70
2018-12-13T20:48:18.720Z,85.50
2018-12-13T20:50:47.001Z,87.67
2018-12-13T20:55:54.377Z,88.26
2018-12-13T20:58:22.642Z,88.35
2018-12-13T21:00:51.685Z,86.81
2018-12-13T21:03:20.017Z,85.00
2018-12-13T21:05:48.332Z,86.55
2018-12-13T21:08:16.685Z,85.62
2018-12-13T21:10:44.988Z,86.30
2018-12-13T21:13:13.291Z,87.98
2018-12-13T21:15:41.576Z,85.92
2018-12-13T21:18:09.832Z,83.48
2018-12-13T21:20:38.141Z,84.23
2018-12-13T21:23:06.485Z,87.63
2018-12-13T21:25:34.784Z,87.57
2018-12-13T21:28:03.080Z,87.38
2018-12-13T21:30:31.371Z,86.83
2018-12-13T21:33:00.593Z,85.69
2018-12-13T21:35:29.160Z,88.27
2018-12-13T21:37:57.559Z,87.50
2018-12-13T21:40:25.847Z,88.31
2018-12-13T21:42:54.152Z,87.07
2018-12-13T21:45:22.451Z,87.04
2018-12-13T21:47:50.740Z,86.75
2018-12-13T21:50:19.025Z,86.22
2018-12-13T21:52:47.276Z,85.43
2018-12-13T21:55:15.626Z,86.49
2018-12-13T21:57:43.904Z,86.28
2018-12-13T22:00:12.166Z,86.53
2018-12-13T22:02:40.452Z,87.49
2018-12-13T22:05:08.984Z,86.82
2018-12-13T22:07:37.252Z,87.98
2018-12-13T22:10:06.997Z,89.02
2018-12-13T22:12:35.267Z,88.66
2018-12-13T22:15:03.795Z,87.87
2018-12-13T22:17:32.047Z,88.95
2018-12-13T22:20:00.323Z,89.76
2018-12-13T22:22:28.646Z,87.44
2018-12-13T22:24:56.908Z,86.62
2018-12-13T22:27:25.261Z,88.23
2018-12-13T22:29:53.596Z,88.01
2018-12-13T22:32:21.932Z,86.18
2018-12-13T22:34:50.239Z,86.78
2018-12-13T22:37:18.534Z,85.13
2018-12-13T22:39:46.894Z,85.39
2018-12-13T22:42:15.176Z,85.24
2018-12-13T22:44:43.471Z,86.18
2018-12-13T22:47:11.727Z,85.12
2018-12-13T22:52:18.137Z,85.35
2018-12-13T22:54:46.525Z,86.19
2018-12-13T22:57:14.812Z,84.91
2018-12-13T22:59:43.067Z,87.63
2018-12-13T23:02:11.443Z,83.68
2018-12-13T23:04:39.699Z,84.45
2018-12-13T23:07:08.004Z,83.72
2018-12-13T23:09:36.336Z,83.46
2018-12-13T23:12:04.609Z,84.72
2018-12-13T23:14:32.872Z,84.80
2018-12-13T23:17:01.203Z,82.81
2018-12-13T23:19:29.502Z,83.76
2018-12-13T23:21:57.757Z,84.23
2018-12-13T23:24:26.037Z,85.09
2018-12-13T23:26:54.324Z,86.40
2018-12-13T23:29:22.630Z,83.88
2018-12-13T23:31:50.917Z,83.64
2018-12-13T23:34:19.187Z,84.81
2018-12-13T23:36:47.476Z,83.58
2018-12-13T23:39:15.790Z,83.34
2018-12-13T23:41:44.076Z,84.71
2018-12-13T23:46:50.595Z,83.97
2018-12-13T23:49:18.896Z,82.77
2018-12-13T23:51:47.149Z,85.20
2018-12-13T23:54:15.436Z,84.63
2018-12-13T23:56:43.731Z,84.68
2018-12-13T23:59:12.069Z,84.55
